sensor_id;sensor_type;location;lat;lon;timestamp;P1;durP1;ratioP1;P2;durP2;ratioP2
41233;SDS011;26968;42.686;23.352;2023-11-21T00:00:51;33.55;;;14.95;;
41233;SDS011;26968;42.686;23.352;2023-11-21T00:03:16;29.33;;;15.27;;
41233;SDS011;26968;42.686;23.352;2023-11-21T00:05:42;31.77;;;13.80;;
41233;SDS011;26968;42.686;23.352;2023-11-21T00:08:08;37.80;;;14.82;;
41233;SDS011;26968;42.686;23.352;2023-11-21T00:10:34;29.10;;;13.60;;
41233;SDS011;26968;42.686;23.352;2023-11-21T00:13:00;35.47;;;15.05;;
41233;SDS011;26968;42.686;23.352;2023-11-21T00:15:27;37.17;;;14.73;;
41233;SDS011;26968;42.686;23.352;2023-11-21T00:17:52;25.77;;;12.95;;
41233;SDS011;26968;42.686;23.352;2023-11-21T00:20:18;33.58;;;14.77;;
41233;SDS011;26968;42.686;23.352;2023-11-21T00:22:43;27.17;;;13.43;;
41233;SDS011;26968;42.686;23.352;2023-11-21T00:25:09;34.10;;;13.52;;
41233;SDS011;26968;42.686;23.352;2023-11-21T00:27:35;29.02;;;13.43;;
41233;SDS011;26968;42.686;23.352;2023-11-21T00:30:01;38.35;;;15.00;;
41233;SDS011;26968;42.686;23.352;2023-11-21T00:32:29;34.20;;;13.60;;
41233;SDS011;26968;42.686;23.352;2023-11-21T00:34:54;28.45;;;12.48;;
41233;SDS011;26968;42.686;23.352;2023-11-21T00:37:20;33.35;;;13.90;;
41233;SDS011;26968;42.686;23.352;2023-11-21T00:39:45;29.10;;;13.35;;
41233;SDS011;26968;42.686;23.352;2023-11-21T00:42:11;28.63;;;13.18;;
41233;SDS011;26968;42.686;23.352;2023-11-21T00:44:39;32.00;;;13.77;;
41233;SDS011;26968;42.686;23.352;2023-11-21T00:47:05;38.38;;;16.00;;
41233;SDS011;26968;42.686;23.352;2023-11-21T00:49:30;66.07;;;26.67;;
41233;SDS011;26968;42.686;23.352;2023-11-21T00:51:57;73.40;;;28.83;;
41233;SDS011;26968;42.686;23.352;2023-11-21T00:54:23;55.22;;;25.95;;
41233;SDS011;26968;42.686;23.352;2023-11-21T00:56:48;69.63;;;26.90;;
41233;SDS011;26968;42.686;23.352;2023-11-21T00:59:14;66.35;;;27.35;;
41233;SDS011;26968;42.686;23.352;2023-11-21T01:01:39;75.97;;;30.23;;
41233;SDS011;26968;42.686;23.352;2023-11-21T01:04:05;61.83;;;23.83;;
41233;SDS011;26968;42.686;23.352;2023-11-21T01:06:32;72.88;;;27.90;;
41233;SDS011;26968;42.686;23.352;2023-11-21T01:08:58;70.05;;;28.45;;
41233;SDS011;26968;42.686;23.352;2023-11-21T01:11:23;63.58;;;28.95;;
41233;SDS011;26968;42.686;23.352;2023-11-21T01:13:49;67.93;;;28.20;;
41233;SDS011;26968;42.686;23.352;2023-11-21T01:16:14;59.45;;;26.45;;
41233;SDS011;26968;42.686;23.352;2023-11-21T01:18:40;60.03;;;25.95;;
41233;SDS011;26968;42.686;23.352;2023-11-21T01:21:05;59.40;;;25.55;;
41233;SDS011;26968;42.686;23.352;2023-11-21T01:23:32;60.28;;;27.27;;
41233;SDS011;26968;42.686;23.352;2023-11-21T01:25:58;62.10;;;26.08;;
41233;SDS011;26968;42.686;23.352;2023-11-21T01:28:23;67.93;;;28.80;;
41233;SDS011;26968;42.686;23.352;2023-11-21T01:30:49;77.60;;;28.33;;
41233;SDS011;26968;42.686;23.352;2023-11-21T01:33:14;69.05;;;28.60;;
41233;SDS011;26968;42.686;23.352;2023-11-21T01:35:41;67.97;;;28.00;;
41233;SDS011;26968;42.686;23.352;2023-11-21T01:38:07;63.33;;;27.17;;
41233;SDS011;26968;42.686;23.352;2023-11-21T01:40:33;62.33;;;27.90;;
41233;SDS011;26968;42.686;23.352;2023-11-21T01:42:59;66.47;;;27.95;;
41233;SDS011;26968;42.686;23.352;2023-11-21T01:45:25;60.60;;;27.13;;
41233;SDS011;26968;42.686;23.352;2023-11-21T01:47:51;60.53;;;27.30;;
41233;SDS011;26968;42.686;23.352;2023-11-21T01:50:17;66.75;;;27.45;;
41233;SDS011;26968;42.686;23.352;2023-11-21T01:52:44;67.88;;;26.40;;
41233;SDS011;26968;42.686;23.352;2023-11-21T01:55:10;56.83;;;25.73;;
41233;SDS011;26968;42.686;23.352;2023-11-21T01:57:37;62.70;;;24.33;;
41233;SDS011;26968;42.686;23.352;2023-11-21T02:00:03;62.67;;;25.67;;
41233;SDS011;26968;42.686;23.352;2023-11-21T02:02:49;63.40;;;25.60;;
41233;SDS011;26968;42.686;23.352;2023-11-21T02:05:15;60.95;;;25.75;;
41233;SDS011;26968;42.686;23.352;2023-11-21T02:07:45;65.55;;;26.35;;
41233;SDS011;26968;42.686;23.352;2023-11-21T02:10:14;59.13;;;24.65;;
41233;SDS011;26968;42.686;23.352;2023-11-21T02:12:41;56.33;;;24.95;;
41233;SDS011;26968;42.686;23.352;2023-11-21T02:15:07;67.63;;;25.35;;
41233;SDS011;26968;42.686;23.352;2023-11-21T02:17:42;65.45;;;26.13;;
41233;SDS011;26968;42.686;23.352;2023-11-21T02:20:09;67.22;;;26.60;;
41233;SDS011;26968;42.686;23.352;2023-11-21T02:22:43;56.42;;;25.30;;
41233;SDS011;26968;42.686;23.352;2023-11-21T02:25:10;53.10;;;25.25;;
41233;SDS011;26968;42.686;23.352;2023-11-21T02:27:36;61.45;;;26.60;;
41233;SDS011;26968;42.686;23.352;2023-11-21T02:30:02;61.80;;;25.40;;
41233;SDS011;26968;42.686;23.352;2023-11-21T02:32:29;54.95;;;24.17;;
41233;SDS011;26968;42.686;23.352;2023-11-21T02:34:56;53.80;;;24.20;;
41233;SDS011;26968;42.686;23.352;2023-11-21T02:37:26;53.67;;;23.98;;
41233;SDS011;26968;42.686;23.352;2023-11-21T02:39:51;57.47;;;24.50;;
41233;SDS011;26968;42.686;23.352;2023-11-21T02:42:17;60.35;;;24.67;;
41233;SDS011;26968;42.686;23.352;2023-11-21T02:44:43;54.42;;;25.33;;
41233;SDS011;26968;42.686;23.352;2023-11-21T02:47:09;59.85;;;24.05;;
41233;SDS011;26968;42.686;23.352;2023-11-21T02:49:35;54.15;;;24.83;;
41233;SDS011;26968;42.686;23.352;2023-11-21T02:52:01;57.13;;;24.48;;
41233;SDS011;26968;42.686;23.352;2023-11-21T02:54:27;61.33;;;24.77;;
41233;SDS011;26968;42.686;23.352;2023-11-21T02:56:52;60.55;;;24.48;;
41233;SDS011;26968;42.686;23.352;2023-11-21T02:59:18;66.00;;;25.85;;
41233;SDS011;26968;42.686;23.352;2023-11-21T03:01:44;64.15;;;25.60;;
41233;SDS011;26968;42.686;23.352;2023-11-21T03:04:10;58.33;;;25.50;;
41233;SDS011;26968;42.686;23.352;2023-11-21T03:06:36;49.83;;;23.10;;
41233;SDS011;26968;42.686;23.352;2023-11-21T03:09:01;66.32;;;25.35;;
41233;SDS011;26968;42.686;23.352;2023-11-21T03:11:27;56.03;;;23.10;;
41233;SDS011;26968;42.686;23.352;2023-11-21T03:13:52;55.65;;;25.17;;
41233;SDS011;26968;42.686;23.352;2023-11-21T03:16:18;57.45;;;24.73;;
41233;SDS011;26968;42.686;23.352;2023-11-21T03:18:44;61.47;;;23.88;;
41233;SDS011;26968;42.686;23.352;2023-11-21T03:21:09;57.92;;;24.85;;
41233;SDS011;26968;42.686;23.352;2023-11-21T03:23:35;55.85;;;25.05;;
41233;SDS011;26968;42.686;23.352;2023-11-21T03:26:01;52.45;;;23.70;;
41233;SDS011;26968;42.686;23.352;2023-11-21T03:28:27;55.17;;;24.38;;
41233;SDS011;26968;42.686;23.352;2023-11-21T03:30:53;60.78;;;25.30;;
41233;SDS011;26968;42.686;23.352;2023-11-21T03:33:19;57.08;;;23.70;;
41233;SDS011;26968;42.686;23.352;2023-11-21T03:35:45;61.42;;;25.40;;
41233;SDS011;26968;42.686;23.352;2023-11-21T03:38:11;55.80;;;25.33;;
41233;SDS011;26968;42.686;23.352;2023-11-21T03:40:37;57.70;;;24.67;;
41233;SDS011;26968;42.686;23.352;2023-11-21T03:43:04;53.53;;;24.08;;
41233;SDS011;26968;42.686;23.352;2023-11-21T03:45:30;65.18;;;24.90;;
41233;SDS011;26968;42.686;23.352;2023-11-21T03:47:55;52.05;;;23.50;;
41233;SDS011;26968;42.686;23.352;2023-11-21T03:50:21;55.40;;;24.13;;
41233;SDS011;26968;42.686;23.352;2023-11-21T03:52:47;52.00;;;23.65;;
41233;SDS011;26968;42.686;23.352;2023-11-21T03:55:12;56.85;;;23.40;;
41233;SDS011;26968;42.686;23.352;2023-11-21T03:57:38;60.00;;;24.50;;
41233;SDS011;26968;42.686;23.352;2023-11-21T04:00:03;54.05;;;21.88;;
41233;SDS011;26968;42.686;23.352;2023-11-21T04:02:29;51.35;;;22.58;;
41233;SDS011;26968;42.686;23.352;2023-11-21T04:04:56;53.65;;;22.77;;
41233;SDS011;26968;42.686;23.352;2023-11-21T04:07:22;52.67;;;22.98;;
41233;SDS011;26968;42.686;23.352;2023-11-21T04:09:47;54.22;;;21.95;;
41233;SDS011;26968;42.686;23.352;2023-11-21T04:12:13;55.05;;;24.88;;
41233;SDS011;26968;42.686;23.352;2023-11-21T04:14:39;46.25;;;21.75;;
41233;SDS011;26968;42.686;23.352;2023-11-21T04:17:04;53.97;;;21.83;;
41233;SDS011;26968;42.686;23.352;2023-11-21T04:19:30;45.40;;;21.95;;
41233;SDS011;26968;42.686;23.352;2023-11-21T04:21:55;59.20;;;22.90;;
41233;SDS011;26968;42.686;23.352;2023-11-21T04:24:21;58.45;;;23.20;;
41233;SDS011;26968;42.686;23.352;2023-11-21T04:26:46;53.08;;;23.77;;
41233;SDS011;26968;42.686;23.352;2023-11-21T04:29:12;55.97;;;21.75;;
41233;SDS011;26968;42.686;23.352;2023-11-21T04:31:37;46.55;;;21.45;;
41233;SDS011;26968;42.686;23.352;2023-11-21T04:34:03;45.72;;;21.45;;
41233;SDS011;26968;42.686;23.352;2023-11-21T04:36:29;47.28;;;22.50;;
41233;SDS011;26968;42.686;23.352;2023-11-21T04:38:56;44.90;;;20.70;;
41233;SDS011;26968;42.686;23.352;2023-11-21T04:41:22;40.55;;;19.30;;
41233;SDS011;26968;42.686;23.352;2023-11-21T04:43:47;45.53;;;20.50;;
41233;SDS011;26968;42.686;23.352;2023-11-21T04:46:13;40.50;;;18.88;;
41233;SDS011;26968;42.686;23.352;2023-11-21T04:48:38;51.50;;;21.20;;
41233;SDS011;26968;42.686;23.352;2023-11-21T04:51:04;58.10;;;25.20;;
41233;SDS011;26968;42.686;23.352;2023-11-21T04:53:30;56.58;;;23.80;;
41233;SDS011;26968;42.686;23.352;2023-11-21T04:55:55;61.78;;;24.00;;
41233;SDS011;26968;42.686;23.352;2023-11-21T04:58:20;47.25;;;22.55;;
41233;SDS011;26968;42.686;23.352;2023-11-21T05:00:46;51.17;;;22.08;;
41233;SDS011;26968;42.686;23.352;2023-11-21T05:03:11;54.03;;;24.35;;
41233;SDS011;26968;42.686;23.352;2023-11-21T05:05:37;57.15;;;23.95;;
41233;SDS011;26968;42.686;23.352;2023-11-21T05:08:03;55.78;;;25.70;;
41233;SDS011;26968;42.686;23.352;2023-11-21T05:10:29;63.72;;;26.35;;
41233;SDS011;26968;42.686;23.352;2023-11-21T05:12:55;62.20;;;27.50;;
41233;SDS011;26968;42.686;23.352;2023-11-21T05:15:20;63.40;;;26.90;;
41233;SDS011;26968;42.686;23.352;2023-11-21T05:17:47;52.10;;;24.63;;
41233;SDS011;26968;42.686;23.352;2023-11-21T05:20:17;66.43;;;26.42;;
41233;SDS011;26968;42.686;23.352;2023-11-21T05:22:46;57.55;;;25.23;;
41233;SDS011;26968;42.686;23.352;2023-11-21T05:25:14;58.70;;;24.92;;
41233;SDS011;26968;42.686;23.352;2023-11-21T05:27:41;65.43;;;25.33;;
41233;SDS011;26968;42.686;23.352;2023-11-21T05:30:07;61.83;;;26.75;;
41233;SDS011;26968;42.686;23.352;2023-11-21T05:32:38;60.92;;;29.42;;
41233;SDS011;26968;42.686;23.352;2023-11-21T05:35:04;62.15;;;28.35;;
41233;SDS011;26968;42.686;23.352;2023-11-21T05:37:34;67.47;;;31.58;;
41233;SDS011;26968;42.686;23.352;2023-11-21T05:40:01;71.80;;;29.17;;
41233;SDS011;26968;42.686;23.352;2023-11-21T05:42:31;68.30;;;28.08;;
41233;SDS011;26968;42.686;23.352;2023-11-21T05:44:57;64.43;;;26.48;;
41233;SDS011;26968;42.686;23.352;2023-11-21T05:47:24;61.40;;;25.98;;
41233;SDS011;26968;42.686;23.352;2023-11-21T05:49:53;54.70;;;25.17;;
41233;SDS011;26968;42.686;23.352;2023-11-21T05:52:19;57.17;;;25.30;;
41233;SDS011;26968;42.686;23.352;2023-11-21T05:54:45;47.53;;;23.52;;
41233;SDS011;26968;42.686;23.352;2023-11-21T05:57:11;65.82;;;28.30;;
41233;SDS011;26968;42.686;23.352;2023-11-21T05:59:36;76.43;;;31.27;;
41233;SDS011;26968;42.686;23.352;2023-11-21T06:02:02;71.00;;;29.95;;
41233;SDS011;26968;42.686;23.352;2023-11-21T06:04:28;70.45;;;30.48;;
41233;SDS011;26968;42.686;23.352;2023-11-21T06:06:53;76.13;;;32.03;;
41233;SDS011;26968;42.686;23.352;2023-11-21T06:09:19;73.45;;;32.65;;
41233;SDS011;26968;42.686;23.352;2023-11-21T06:11:45;71.55;;;29.63;;
41233;SDS011;26968;42.686;23.352;2023-11-21T06:14:11;68.65;;;30.95;;
41233;SDS011;26968;42.686;23.352;2023-11-21T06:16:36;58.33;;;23.75;;
41233;SDS011;26968;42.686;23.352;2023-11-21T06:19:02;43.58;;;20.95;;
41233;SDS011;26968;42.686;23.352;2023-11-21T06:21:27;41.33;;;19.67;;
41233;SDS011;26968;42.686;23.352;2023-11-21T06:23:53;45.25;;;20.25;;
41233;SDS011;26968;42.686;23.352;2023-11-21T06:26:19;46.75;;;20.27;;
41233;SDS011;26968;42.686;23.352;2023-11-21T06:28:45;42.50;;;19.48;;
41233;SDS011;26968;42.686;23.352;2023-11-21T06:31:11;32.67;;;18.60;;
41233;SDS011;26968;42.686;23.352;2023-11-21T06:33:37;41.38;;;20.70;;
41233;SDS011;26968;42.686;23.352;2023-11-21T06:36:03;42.95;;;20.77;;
41233;SDS011;26968;42.686;23.352;2023-11-21T06:38:29;41.33;;;20.83;;
41233;SDS011;26968;42.686;23.352;2023-11-21T06:40:58;47.55;;;21.05;;
41233;SDS011;26968;42.686;23.352;2023-11-21T06:43:23;44.80;;;20.92;;
41233;SDS011;26968;42.686;23.352;2023-11-21T06:45:50;46.65;;;20.90;;
41233;SDS011;26968;42.686;23.352;2023-11-21T06:48:16;49.28;;;20.63;;
41233;SDS011;26968;42.686;23.352;2023-11-21T06:50:41;39.40;;;19.52;;
41233;SDS011;26968;42.686;23.352;2023-11-21T06:53:07;49.25;;;20.13;;
41233;SDS011;26968;42.686;23.352;2023-11-21T06:55:33;35.97;;;17.50;;
41233;SDS011;26968;42.686;23.352;2023-11-21T06:57:59;39.67;;;17.80;;
41233;SDS011;26968;42.686;23.352;2023-11-21T07:00:25;38.42;;;17.92;;
41233;SDS011;26968;42.686;23.352;2023-11-21T07:02:53;45.00;;;17.88;;
41233;SDS011;26968;42.686;23.352;2023-11-21T07:05:19;39.03;;;18.75;;
41233;SDS011;26968;42.686;23.352;2023-11-21T07:07:46;40.22;;;18.83;;
41233;SDS011;26968;42.686;23.352;2023-11-21T07:10:13;40.65;;;19.75;;
41233;SDS011;26968;42.686;23.352;2023-11-21T07:12:39;50.72;;;23.13;;
41233;SDS011;26968;42.686;23.352;2023-11-21T07:15:05;48.50;;;22.88;;
41233;SDS011;26968;42.686;23.352;2023-11-21T07:17:34;50.30;;;22.73;;
41233;SDS011;26968;42.686;23.352;2023-11-21T07:20:03;47.75;;;21.02;;
41233;SDS011;26968;42.686;23.352;2023-11-21T07:22:29;44.63;;;20.80;;
41233;SDS011;26968;42.686;23.352;2023-11-21T07:24:55;57.03;;;24.20;;
41233;SDS011;26968;42.686;23.352;2023-11-21T07:27:21;54.97;;;24.60;;
41233;SDS011;26968;42.686;23.352;2023-11-21T07:29:47;55.28;;;26.75;;
41233;SDS011;26968;42.686;23.352;2023-11-21T07:32:13;57.58;;;24.42;;
41233;SDS011;26968;42.686;23.352;2023-11-21T07:34:40;53.17;;;25.45;;
41233;SDS011;26968;42.686;23.352;2023-11-21T07:37:09;54.47;;;26.60;;
41233;SDS011;26968;42.686;23.352;2023-11-21T07:39:35;45.58;;;24.48;;
41233;SDS011;26968;42.686;23.352;2023-11-21T07:42:06;57.38;;;22.77;;
41233;SDS011;26968;42.686;23.352;2023-11-21T07:44:32;48.05;;;22.67;;
41233;SDS011;26968;42.686;23.352;2023-11-21T07:46:58;51.80;;;22.33;;
41233;SDS011;26968;42.686;23.352;2023-11-21T07:49:24;56.70;;;23.33;;
41233;SDS011;26968;42.686;23.352;2023-11-21T07:51:50;48.40;;;21.67;;
41233;SDS011;26968;42.686;23.352;2023-11-21T07:54:16;51.55;;;20.90;;
41233;SDS011;26968;42.686;23.352;2023-11-21T07:56:42;37.78;;;21.30;;
41233;SDS011;26968;42.686;23.352;2023-11-21T07:59:07;56.00;;;24.23;;
41233;SDS011;26968;42.686;23.352;2023-11-21T08:01:33;51.88;;;22.90;;
41233;SDS011;26968;42.686;23.352;2023-11-21T08:03:58;52.75;;;22.60;;
41233;SDS011;26968;42.686;23.352;2023-11-21T08:06:29;57.78;;;22.63;;
41233;SDS011;26968;42.686;23.352;2023-11-21T08:08:58;56.63;;;22.63;;
41233;SDS011;26968;42.686;23.352;2023-11-21T08:11:25;57.97;;;24.67;;
41233;SDS011;26968;42.686;23.352;2023-11-21T08:13:56;56.78;;;25.30;;
41233;SDS011;26968;42.686;23.352;2023-11-21T08:16:22;56.55;;;27.65;;
41233;SDS011;26968;42.686;23.352;2023-11-21T08:18:49;52.72;;;27.85;;
41233;SDS011;26968;42.686;23.352;2023-11-21T08:21:14;63.60;;;28.48;;
41233;SDS011;26968;42.686;23.352;2023-11-21T08:23:40;57.83;;;28.95;;
41233;SDS011;26968;42.686;23.352;2023-11-21T08:26:05;59.83;;;28.50;;
41233;SDS011;26968;42.686;23.352;2023-11-21T08:28:31;76.60;;;30.20;;
41233;SDS011;26968;42.686;23.352;2023-11-21T08:30:56;54.55;;;24.35;;
41233;SDS011;26968;42.686;23.352;2023-11-21T08:33:22;56.58;;;23.58;;
41233;SDS011;26968;42.686;23.352;2023-11-21T08:35:48;50.95;;;22.50;;
41233;SDS011;26968;42.686;23.352;2023-11-21T08:38:13;44.10;;;21.17;;
41233;SDS011;26968;42.686;23.352;2023-11-21T08:40:39;45.03;;;24.00;;
41233;SDS011;26968;42.686;23.352;2023-11-21T08:43:04;58.22;;;24.70;;
41233;SDS011;26968;42.686;23.352;2023-11-21T08:45:30;67.35;;;27.70;;
41233;SDS011;26968;42.686;23.352;2023-11-21T08:47:59;61.42;;;29.63;;
41233;SDS011;26968;42.686;23.352;2023-11-21T08:50:25;64.55;;;29.83;;
41233;SDS011;26968;42.686;23.352;2023-11-21T08:52:50;81.60;;;33.17;;
41233;SDS011;26968;42.686;23.352;2023-11-21T08:55:16;64.65;;;29.63;;
41233;SDS011;26968;42.686;23.352;2023-11-21T08:57:43;61.58;;;29.95;;
41233;SDS011;26968;42.686;23.352;2023-11-21T09:00:10;72.55;;;33.67;;
41233;SDS011;26968;42.686;23.352;2023-11-21T09:02:37;97.63;;;37.95;;
41233;SDS011;26968;42.686;23.352;2023-11-21T09:05:08;85.25;;;37.75;;
41233;SDS011;26968;42.686;23.352;2023-11-21T09:07:38;88.65;;;38.10;;
41233;SDS011;26968;42.686;23.352;2023-11-21T09:10:05;92.38;;;37.40;;
41233;SDS011;26968;42.686;23.352;2023-11-21T09:12:34;76.68;;;36.22;;
41233;SDS011;26968;42.686;23.352;2023-11-21T09:15:02;85.30;;;39.65;;
41233;SDS011;26968;42.686;23.352;2023-11-21T09:17:29;89.90;;;41.20;;
41233;SDS011;26968;42.686;23.352;2023-11-21T09:19:55;87.93;;;37.75;;
41233;SDS011;26968;42.686;23.352;2023-11-21T09:22:22;87.80;;;39.63;;
41233;SDS011;26968;42.686;23.352;2023-11-21T09:24:49;72.90;;;37.15;;
41233;SDS011;26968;42.686;23.352;2023-11-21T09:27:18;71.10;;;36.83;;
41233;SDS011;26968;42.686;23.352;2023-11-21T09:29:44;84.65;;;36.97;;
41233;SDS011;26968;42.686;23.352;2023-11-21T09:32:10;73.70;;;35.53;;
41233;SDS011;26968;42.686;23.352;2023-11-21T09:34:37;70.90;;;38.30;;
41233;SDS011;26968;42.686;23.352;2023-11-21T09:37:06;80.75;;;37.97;;
41233;SDS011;26968;42.686;23.352;2023-11-21T09:39:33;76.28;;;37.03;;
41233;SDS011;26968;42.686;23.352;2023-11-21T09:44:35;84.90;;;37.45;;
41233;SDS011;26968;42.686;23.352;2023-11-21T09:47:02;87.40;;;37.90;;
41233;SDS011;26968;42.686;23.352;2023-11-21T09:49:28;77.03;;;37.30;;
41233;SDS011;26968;42.686;23.352;2023-11-21T09:51:57;76.25;;;35.50;;
41233;SDS011;26968;42.686;23.352;2023-11-21T09:54:28;81.53;;;35.65;;
41233;SDS011;26968;42.686;23.352;2023-11-21T09:56:54;56.55;;;28.95;;
41233;SDS011;26968;42.686;23.352;2023-11-21T09:59:20;53.00;;;25.67;;
41233;SDS011;26968;42.686;23.352;2023-11-21T10:01:46;58.35;;;25.98;;
41233;SDS011;26968;42.686;23.352;2023-11-21T10:04:13;49.60;;;22.48;;
41233;SDS011;26968;42.686;23.352;2023-11-21T10:06:41;43.33;;;20.33;;
41233;SDS011;26968;42.686;23.352;2023-11-21T10:09:09;42.35;;;18.88;;
41233;SDS011;26968;42.686;23.352;2023-11-21T10:11:40;39.80;;;19.25;;
41233;SDS011;26968;42.686;23.352;2023-11-21T10:14:07;36.42;;;18.58;;
41233;SDS011;26968;42.686;23.352;2023-11-21T10:16:35;49.45;;;19.55;;
41233;SDS011;26968;42.686;23.352;2023-11-21T10:19:04;33.15;;;17.90;;
41233;SDS011;26968;42.686;23.352;2023-11-21T10:21:32;35.22;;;18.38;;
41233;SDS011;26968;42.686;23.352;2023-11-21T10:23:58;40.80;;;17.77;;
41233;SDS011;26968;42.686;23.352;2023-11-21T10:26:24;42.25;;;17.55;;
41233;SDS011;26968;42.686;23.352;2023-11-21T10:28:59;36.83;;;17.80;;
41233;SDS011;26968;42.686;23.352;2023-11-21T10:31:32;28.15;;;15.65;;
41233;SDS011;26968;42.686;23.352;2023-11-21T10:34:15;31.55;;;14.77;;
41233;SDS011;26968;42.686;23.352;2023-11-21T10:36:42;30.23;;;16.17;;
41233;SDS011;26968;42.686;23.352;2023-11-21T10:39:08;26.77;;;12.77;;
41233;SDS011;26968;42.686;23.352;2023-11-21T10:41:35;27.05;;;14.15;;
41233;SDS011;26968;42.686;23.352;2023-11-21T10:44:01;33.28;;;16.00;;
41233;SDS011;26968;42.686;23.352;2023-11-21T10:47:03;37.85;;;17.35;;
41233;SDS011;26968;42.686;23.352;2023-11-21T10:49:33;38.65;;;17.08;;
41233;SDS011;26968;42.686;23.352;2023-11-21T10:51:59;27.60;;;15.98;;
41233;SDS011;26968;42.686;23.352;2023-11-21T10:54:25;33.75;;;16.20;;
41233;SDS011;26968;42.686;23.352;2023-11-21T10:56:56;41.53;;;17.05;;
41233;SDS011;26968;42.686;23.352;2023-11-21T10:59:26;45.70;;;18.33;;
41233;SDS011;26968;42.686;23.352;2023-11-21T11:01:57;39.53;;;18.55;;
41233;SDS011;26968;42.686;23.352;2023-11-21T11:04:28;30.98;;;16.63;;
41233;SDS011;26968;42.686;23.352;2023-11-21T11:06:55;37.00;;;17.10;;
41233;SDS011;26968;42.686;23.352;2023-11-21T11:09:23;30.98;;;15.85;;
41233;SDS011;26968;42.686;23.352;2023-11-21T11:11:53;43.57;;;16.93;;
41233;SDS011;26968;42.686;23.352;2023-11-21T11:14:24;33.13;;;15.77;;
41233;SDS011;26968;42.686;23.352;2023-11-21T11:16:52;40.42;;;16.15;;
41233;SDS011;26968;42.686;23.352;2023-11-21T11:19:20;33.33;;;17.20;;
41233;SDS011;26968;42.686;23.352;2023-11-21T11:37:51;37.17;;;16.77;;
41233;SDS011;26968;42.686;23.352;2023-11-21T11:40:17;36.20;;;15.63;;
41233;SDS011;26968;42.686;23.352;2023-11-21T11:42:57;40.30;;;17.05;;
41233;SDS011;26968;42.686;23.352;2023-11-21T11:45:24;37.17;;;17.13;;
41233;SDS011;26968;42.686;23.352;2023-11-21T11:47:57;34.03;;;17.45;;
41233;SDS011;26968;42.686;23.352;2023-11-21T11:50:28;41.97;;;18.98;;
41233;SDS011;26968;42.686;23.352;2023-11-21T11:53:11;37.03;;;19.85;;
41233;SDS011;26968;42.686;23.352;2023-11-21T11:55:38;37.90;;;18.33;;
41233;SDS011;26968;42.686;23.352;2023-11-21T11:58:05;46.38;;;21.52;;
41233;SDS011;26968;42.686;23.352;2023-11-21T12:02:59;46.22;;;20.95;;
41233;SDS011;26968;42.686;23.352;2023-11-21T12:05:29;48.45;;;22.33;;
41233;SDS011;26968;42.686;23.352;2023-11-21T12:08:06;54.95;;;26.55;;
41233;SDS011;26968;42.686;23.352;2023-11-21T12:10:35;53.10;;;25.80;;
41233;SDS011;26968;42.686;23.352;2023-11-21T12:15:32;53.90;;;28.05;;
41233;SDS011;26968;42.686;23.352;2023-11-21T12:17:58;71.50;;;31.88;;
41233;SDS011;26968;42.686;23.352;2023-11-21T12:20:24;68.00;;;31.23;;
41233;SDS011;26968;42.686;23.352;2023-11-21T12:22:58;58.72;;;28.15;;
41233;SDS011;26968;42.686;23.352;2023-11-21T12:25:25;55.95;;;27.48;;
41233;SDS011;26968;42.686;23.352;2023-11-21T12:27:54;54.22;;;26.95;;
41233;SDS011;26968;42.686;23.352;2023-11-21T12:30:21;60.15;;;27.65;;
41233;SDS011;26968;42.686;23.352;2023-11-21T12:32:50;57.83;;;27.48;;
41233;SDS011;26968;42.686;23.352;2023-11-21T12:35:18;61.35;;;28.90;;
41233;SDS011;26968;42.686;23.352;2023-11-21T12:37:45;64.30;;;30.05;;
41233;SDS011;26968;42.686;23.352;2023-11-21T12:40:12;65.35;;;25.85;;
41233;SDS011;26968;42.686;23.352;2023-11-21T12:42:47;59.50;;;27.20;;
41233;SDS011;26968;42.686;23.352;2023-11-21T12:45:18;62.25;;;26.20;;
41233;SDS011;26968;42.686;23.352;2023-11-21T12:47:49;70.77;;;28.27;;
41233;SDS011;26968;42.686;23.352;2023-11-21T12:50:22;64.80;;;26.40;;
41233;SDS011;26968;42.686;23.352;2023-11-21T12:52:51;65.05;;;26.85;;
41233;SDS011;26968;42.686;23.352;2023-11-21T12:55:21;70.40;;;24.83;;
41233;SDS011;26968;42.686;23.352;2023-11-21T12:57:54;58.80;;;26.05;;
41233;SDS011;26968;42.686;23.352;2023-11-21T13:00:27;62.78;;;27.40;;
41233;SDS011;26968;42.686;23.352;2023-11-21T13:02:57;66.00;;;24.33;;
41233;SDS011;26968;42.686;23.352;2023-11-21T13:05:27;68.45;;;25.25;;
41233;SDS011;26968;42.686;23.352;2023-11-21T13:07:58;65.63;;;25.92;;
41233;SDS011;26968;42.686;23.352;2023-11-21T13:10:27;60.53;;;25.35;;
41233;SDS011;26968;42.686;23.352;2023-11-21T13:12:56;64.07;;;24.67;;
41233;SDS011;26968;42.686;23.352;2023-11-21T13:15:23;57.50;;;24.95;;
41233;SDS011;26968;42.686;23.352;2023-11-21T13:17:50;56.35;;;25.90;;
41233;SDS011;26968;42.686;23.352;2023-11-21T13:20:16;60.15;;;25.65;;
41233;SDS011;26968;42.686;23.352;2023-11-21T13:22:51;65.55;;;25.17;;
41233;SDS011;26968;42.686;23.352;2023-11-21T13:25:29;62.40;;;26.80;;
41233;SDS011;26968;42.686;23.352;2023-11-21T13:27:56;60.70;;;26.50;;
41233;SDS011;26968;42.686;23.352;2023-11-21T13:30:24;69.43;;;26.75;;
41233;SDS011;26968;42.686;23.352;2023-11-21T13:32:53;70.93;;;28.13;;
41233;SDS011;26968;42.686;23.352;2023-11-21T13:35:22;62.83;;;28.75;;
41233;SDS011;26968;42.686;23.352;2023-11-21T13:38:08;62.88;;;28.30;;
41233;SDS011;26968;42.686;23.352;2023-11-21T13:40:38;58.30;;;28.47;;
41233;SDS011;26968;42.686;23.352;2023-11-21T13:43:09;61.35;;;28.25;;
41233;SDS011;26968;42.686;23.352;2023-11-21T13:45:38;61.55;;;29.05;;
41233;SDS011;26968;42.686;23.352;2023-11-21T13:48:05;57.20;;;27.90;;
41233;SDS011;26968;42.686;23.352;2023-11-21T13:50:38;70.03;;;31.97;;
41233;SDS011;26968;42.686;23.352;2023-11-21T13:53:09;58.92;;;29.23;;
41233;SDS011;26968;42.686;23.352;2023-11-21T13:55:48;59.22;;;27.65;;
41233;SDS011;26968;42.686;23.352;2023-11-21T13:58:14;63.85;;;28.77;;
41233;SDS011;26968;42.686;23.352;2023-11-21T14:00:47;56.53;;;29.02;;
41233;SDS011;26968;42.686;23.352;2023-11-21T14:03:21;57.60;;;28.80;;
41233;SDS011;26968;42.686;23.352;2023-11-21T14:05:50;63.13;;;29.98;;
41233;SDS011;26968;42.686;23.352;2023-11-21T14:08:21;56.20;;;28.70;;
41233;SDS011;26968;42.686;23.352;2023-11-21T14:10:50;62.25;;;29.13;;
41233;SDS011;26968;42.686;23.352;2023-11-21T14:13:20;65.30;;;29.80;;
41233;SDS011;26968;42.686;23.352;2023-11-21T14:15:48;62.13;;;28.40;;
41233;SDS011;26968;42.686;23.352;2023-11-21T14:18:22;60.10;;;27.45;;
41233;SDS011;26968;42.686;23.352;2023-11-21T14:20:58;57.13;;;26.98;;
41233;SDS011;26968;42.686;23.352;2023-11-21T14:23:26;71.78;;;29.23;;
41233;SDS011;26968;42.686;23.352;2023-11-21T14:25:53;66.65;;;28.58;;
41233;SDS011;26968;42.686;23.352;2023-11-21T14:28:19;60.33;;;28.30;;
41233;SDS011;26968;42.686;23.352;2023-11-21T14:30:45;88.80;;;31.77;;
41233;SDS011;26968;42.686;23.352;2023-11-21T14:33:12;58.65;;;28.92;;